Terminal Aerodrome Forecast
Issued by NWS

Home | Current Version | Previous Version | Text Only | Print | Product List | Glossary On
Versions: 1 2 3 4 5 6 7 8 9 10 11 12 13 14 15 16 17 18 19 20 21 22
954
FTUS41 KPHI 300145 AAA
TAFMIV
TAF AMD
KMIV 300145Z 3002/3024 08012G22KT 4SM RA BR OVC010
      TEMPO 3002/3005 BKN008
     FM301200 05015KT 3SM -DZ BR OVC008=

USA.gov is the U.S. government's official web portal to all federal, state and local government web resources and services.